< Typhoon 199124 1991 Season Typhoon 199126 >
Typhoon 199125 (THELMA)
General InformationTrack Information on Google MapsDetailed Wind InformationList of All Images || Disaster Info.ResourceGoogle EarthGE AnimationAtom FeedGeoJSON
Detalied Best Track (Time Zone = UTC)
Year Month Day Hour Lat. Long. Pressure (hPa) Wind (kt) Class Image Chart
1991 11 1 00 11.0 136.0 1006 0 2 Image Chart
1991 11 1 06 12.0 135.2 1004 0 2 Image Chart
1991 11 1 12 12.8 134.3 1004 0 2 Image Chart
1991 11 1 18 13.2 133.5 1004 0 2 Image Chart
1991 11 2 00 13.0 132.8 1004 0 2 Image Chart
1991 11 2 06 12.9 132.3 1004 0 2 Image Chart
1991 11 2 12 13.0 131.6 1004 0 2 Image Chart
1991 11 2 18 13.3 131.0 1004 0 2 Image Chart
1991 11 3 00 13.5 130.5 1004 0 2 Image Chart
1991 11 3 06 13.5 130.0 1004 0 2 Image Chart
1991 11 3 12 13.4 129.3 1002 0 2 Image Chart
1991 11 3 18 13.2 128.7 1002 0 2 Image Chart
1991 11 4 00 13.0 128.1 998 35 3 Image Chart
1991 11 4 06 12.6 127.4 992 40 3 Image Chart
1991 11 4 12 12.2 126.6 992 40 3 Image Chart
1991 11 4 18 11.9 126.1 992 40 3 Image Chart
1991 11 5 00 11.5 125.1 996 40 3 Image Chart
1991 11 5 06 11.2 124.2 996 40 3 Image Chart
1991 11 5 12 10.7 122.8 996 40 3 Image Chart
1991 11 5 18 10.4 121.5 1000 40 3 Image Chart
1991 11 6 00 10.2 119.9 1000 35 3 Image Chart
1991 11 6 06 10.4 118.8 1000 35 3 Image Chart
1991 11 6 12 10.9 116.9 1000 35 3 Image Chart
1991 11 6 18 11.3 115.4 1000 35 3 Image Chart
1991 11 7 00 11.4 114.2 1000 35 3 Image Chart
1991 11 7 06 11.3 113.5 1000 0 2 Image Chart
1991 11 7 12 10.9 112.8 1004 0 2 Image Chart
1991 11 7 18 10.5 112.2 1004 0 2 Image Chart
1991 11 8 00 10.1 111.1 1004 0 2 Image Chart
1991 11 8 06 9.8 110.0 1006 0 2 Image Chart
1991 11 8 12 9.3 109.0 1008 0 2 Image Chart
Japan Meteorological Agency Best Track Data | Correction Date : 1992-01-04
< Typhoon 199124 1991 Season Typhoon 199126 >

Help